Latest Weather Observations for Spitfire Channel

IDQ60901

Issued at 1:11 am EST Thursday 30 January 2020 (issued every 10 minutes, with the page automatically refreshed every 10 minutes)

About weather observations | Map of Brisbane area stations | Latest observations for Brisbane area | Other Formats
Station Details ID: 040927 Name: SPITFIRE CHANNEL BEACON Lat: -27.05 Lon: 153.27 Height: 7.0 m
Data from the previous 72 hours. | See also: Recent months at Spitfire Channel
Date/Time
EST
Temp
°C
App
Temp
°C
Dew
Point
°C
Rel
Hum
%
Delta-T
°C
Wind Press
QNH
hPa
Press
MSL
hPa
Rain since
9am
mm
Dir  Spd
km/h
Gust
km/h
Spd
kts
Gust
kts
30/01:00am - - - - - NE 15 17 8 9 - - -
30/12:30am - - - - - NE 15 17 8 9 - - -
30/12:00am - - - - - NE 19 20 10 11 - - -
 
Date/Time
EST
Temp
°C
App
Temp
°C
Dew
Point
°C
Rel
Hum
%
Delta-T
°C
Wind Press
QNH
hPa
Press
MSL
hPa
Rain since
9am
mm
Dir  Spd
km/h
Gust
km/h
Spd
kts
Gust
kts
29/11:30pm - - - - - NNE 19 22 10 12 - - -
29/11:00pm - - - - - NNE 20 22 11 12 - - -
29/10:30pm - - - - - NNE 19 22 10 12 - - -
29/10:00pm - - - - - N 20 24 11 13 - - -
29/09:30pm - - - - - NNE 20 24 11 13 - - -
29/09:00pm - - - - - NNE 20 24 11 13 - - -
29/08:30pm - - - - - N 22 24 12 13 - - -
29/08:00pm - - - - - N 22 26 12 14 - - -
29/07:30pm - - - - - N 20 24 11 13 - - -
29/07:00pm - - - - - N 22 24 12 13 - - -
29/06:30pm - - - - - N 22 26 12 14 - - -
29/06:00pm - - - - - N 22 24 12 13 - - -
29/05:30pm - - - - - N 24 28 13 15 - - -
29/05:00pm - - - - - N 24 28 13 15 - - -
29/04:30pm - - - - - NNE 22 26 12 14 - - -
29/04:00pm - - - - - NNE 20 24 11 13 - - -
29/03:30pm - - - - - NNE 22 24 12 13 - - -
29/03:00pm - - - - - NNE 22 26 12 14 - - -
29/02:30pm - - - - - NNE 20 24 11 13 - - -
29/02:00pm - - - - - NNE 22 24 12 13 - - -
29/01:30pm - - - - - NNE 20 24 11 13 - - -
29/01:00pm - - - - - N 22 24 12 13 - - -
29/12:30pm - - - - - N 20 24 11 13 - - -
29/12:00pm - - - - - N 20 24 11 13 - - -
29/11:30am - - - - - N 20 24 11 13 - - -
29/11:00am - - - - - N 20 24 11 13 - - -
29/10:30am - - - - - N 20 24 11 13 - - -
29/10:00am - - - - - N 19 20 10 11 - - -
29/09:30am - - - - - N 17 20 9 11 - - -
29/09:00am - - - - - N 15 17 8 9 - - -
29/08:30am - - - - - NNW 11 15 6 8 - - -
29/08:00am - - - - - NNW 11 15 6 8 - - -
29/07:30am - - - - - NNW 13 15 7 8 - - -
29/07:00am - - - - - NNW 9 13 5 7 - - -
29/06:30am - - - - - NNW 13 17 7 9 - - -
29/06:00am - - - - - NNW 13 17 7 9 - - -
29/05:30am - - - - - NNW 13 15 7 8 - - -
29/05:00am - - - - - NNW 11 13 6 7 - - -
29/04:30am - - - - - NNW 11 13 6 7 - - -
29/04:00am - - - - - NNW 7 9 4 5 - - -
29/03:30am - - - - - NNW 9 13 5 7 - - -
29/03:00am - - - - - NW 9 13 5 7 - - -
29/02:30am - - - - - NW 11 19 6 10 - - -
29/02:00am - - - - - N 20 24 11 13 - - -
29/01:30am - - - - - N 20 24 11 13 - - -
29/01:00am - - - - - N 20 24 11 13 - - -
29/12:30am - - - - - N 20 22 11 12 - - -
29/12:00am - - - - - N 20 24 11 13 - - -
 
Date/Time
EST
Temp
°C
App
Temp
°C
Dew
Point
°C
Rel
Hum
%
Delta-T
°C
Wind Press
QNH
hPa
Press
MSL
hPa
Rain since
9am
mm
Dir  Spd
km/h
Gust
km/h
Spd
kts
Gust
kts
28/11:30pm - - - - - N 20 24 11 13 - - -
28/11:00pm - - - - - N 20 24 11 13 - - -
28/10:30pm - - - - - N 22 26 12 14 - - -
28/10:00pm - - - - - N 24 28 13 15 - - -
28/09:30pm - - - - - N 28 33 15 18 - - -
28/09:00pm - - - - - N 24 28 13 15 - - -
28/08:30pm - - - - - NNE 22 26 12 14 - - -
28/08:00pm - - - - - NNE 22 24 12 13 - - -
28/07:30pm - - - - - NNE 19 24 10 13 - - -
28/07:00pm - - - - - NNE 19 20 10 11 - - -
28/06:30pm - - - - - NNE 19 20 10 11 - - -
28/06:00pm - - - - - NNE 19 22 10 12 - - -
28/05:30pm - - - - - NNE 20 22 11 12 - - -
28/05:00pm - - - - - NNE 19 20 10 11 - - -
28/04:30pm - - - - - NNE 19 22 10 12 - - -
28/04:00pm - - - - - NE 20 24 11 13 - - -
28/03:30pm - - - - - NE 22 24 12 13 - - -
28/03:00pm - - - - - NE 20 24 11 13 - - -
28/02:30pm - - - - - NE 17 19 9 10 - - -
28/02:00pm - - - - - NE 17 19 9 10 - - -
28/01:30pm - - - - - NE 17 19 9 10 - - -
28/01:00pm - - - - - NE 19 20 10 11 - - -
28/12:30pm - - - - - NE 19 20 10 11 - - -
28/12:00pm - - - - - NNE 9 11 5 6 - - -
28/11:30am - - - - - N 17 22 9 12 - - -
28/11:00am - - - - - NNE 13 17 7 9 - - -
28/10:30am - - - - - NE 15 19 8 10 - - -
28/10:00am - - - - - NE 15 19 8 10 - - -
28/09:30am - - - - - NE 15 20 8 11 - - -
28/09:00am - - - - - NE 17 19 9 10 - - -
28/08:30am - - - - - NE 17 20 9 11 - - -
28/08:00am - - - - - NNE 15 17 8 9 - - -
28/07:30am - - - - - NE 11 15 6 8 - - -
28/07:00am - - - - - NNE 19 26 10 14 - - -
28/06:30am - - - - - NNE 19 24 10 13 - - -
28/06:00am - - - - - NNE 26 32 14 17 - - -
28/05:30am - - - - - N 17 26 9 14 - - -
28/05:00am - - - - - NE 20 26 11 14 - - -
28/04:30am - - - - - NE 20 24 11 13 - - -
28/04:00am - - - - - NE 22 28 12 15 - - -
28/03:30am - - - - - NNE 24 32 13 17 - - -
28/03:00am - - - - - NE 20 22 11 12 - - -
28/02:30am - - - - - NE 22 26 12 14 - - -
28/02:00am - - - - - ENE 22 26 12 14 - - -
28/01:30am - - - - - ENE 24 28 13 15 - - -
28/01:00am - - - - - ENE 22 28 12 15 - - -
28/12:30am - - - - - NE 22 28 12 15 - - -
28/12:00am - - - - - NE 26 30 14 16 - - -
 
Date/Time
EST
Temp
°C
App
Temp
°C
Dew
Point
°C
Rel
Hum
%
Delta-T
°C
Wind Press
QNH
hPa
Press
MSL
hPa
Rain since
9am
mm
Dir  Spd
km/h
Gust
km/h
Spd
kts
Gust
kts
27/11:30pm - - - - - ENE 26 33 14 18 - - -
27/11:00pm - - - - - NE 24 30 13 16 - - -
27/10:30pm - - - - - NE 24 30 13 16 - - -
27/10:00pm - - - - - NE 22 28 12 15 - - -
27/09:30pm - - - - - NE 22 24 12 13 - - -
27/09:00pm - - - - - NE 17 22 9 12 - - -
27/08:30pm - - - - - NE 24 28 13 15 - - -
27/08:00pm - - - - - NE 26 35 14 19 - - -
27/07:46pm - - - - - ENE 20 35 11 19 - - -
27/07:30pm - - - - - ENE 11 15 6 8 - - -
27/07:00pm - - - - - ENE 17 20 9 11 - - -
27/06:30pm - - - - - ENE 17 20 9 11 - - -
27/06:00pm - - - - - ENE 17 20 9 11 - - -
27/05:30pm - - - - - ENE 20 26 11 14 - - -
27/05:00pm - - - - - NE 20 22 11 12 - - -
27/04:30pm - - - - - ENE 20 24 11 13 - - -
27/04:00pm - - - - - NE 22 26 12 14 - - -
27/03:30pm - - - - - NE 24 28 13 15 - - -
27/03:00pm - - - - - NE 22 26 12 14 - - -
27/02:30pm - - - - - NE 22 24 12 13 - - -
27/02:00pm - - - - - NE 20 24 11 13 - - -
27/01:30pm - - - - - NE 20 24 11 13 - - -
27/01:00pm - - - - - NE 20 22 11 12 - - -
27/12:30pm - - - - - NE 19 22 10 12 - - -
27/12:00pm - - - - - NE 19 22 10 12 - - -
27/11:30am - - - - - NE 17 19 9 10 - - -
27/11:00am - - - - - NE 9 13 5 7 - - -
27/10:30am - - - - - NE 13 17 7 9 - - -
27/10:00am - - - - - NE 11 15 6 8 - - -
27/09:30am - - - - - NE 9 11 5 6 - - -
27/09:00am - - - - - NE 11 13 6 7 - - -
27/08:30am - - - - - NE 11 13 6 7 - - -
27/08:00am - - - - - NE 13 15 7 8 - - -
27/07:30am - - - - - NE 15 17 8 9 - - -
27/07:00am - - - - - NE 15 17 8 9 - - -
27/06:30am - - - - - NE 15 17 8 9 - - -
27/06:00am - - - - - NE 19 20 10 11 - - -
27/05:30am - - - - - NE 15 19 8 10 - - -
27/05:00am - - - - - NE 17 19 9 10 - - -
27/04:30am - - - - - NE 19 20 10 11 - - -
27/04:00am - - - - - CALM 0 0 0 0 - - -
27/03:30am - - - - - ENE 15 24 8 13 - - -
27/03:00am - - - - - ENE 24 32 13 17 - - -
27/02:30am - - - - - NNE 20 24 11 13 - - -
27/02:00am - - - - - NNE 19 24 10 13 - - -
27/01:30am - - - - - NE 20 28 11 15 - - -

Latest Capital City Observations: Canberra | Sydney | Melbourne | Brisbane | Adelaide | Perth | Hobart | Darwin

Other formats

Comma delimited format used in spreadsheet applications
http://www.bom.gov.au/fwo/IDQ60901/IDQ60901.94581.axf

JavaScript Object Notation format (JSON) in row-major order
http://www.bom.gov.au/fwo/IDQ60901/IDQ60901.94581.json

Data quality

Most of these data are generated automatically and are frequently updated. Quality checks on data are not normally performed. It is possible for incorrect values to appear. Refer to information at About Latest Weather Observations and please check the disclaimer before using these data.